METAR Data
IDs: Format: Raw Decoded Include TAF

Data at: 2332 UTC 25 Oct 2021

PAHC 252256Z AUTO 28007KT CLR M01/M04 A2937 RMK AO2 SLP949 T10061044 PWINO FZRANO RVRNO $
PAHC 252156Z AUTO 27005KT CLR M01/M05 A2937 RMK AO2 SLP949 T10111050 PWINO FZRANO RVRNO $
PAHC 252056Z AUTO 30006KT CLR M03/M06 A2936 RMK AO2 SLP946 T10281056 51005 PWINO FZRANO RVRNO $
PAHC 251956Z AUTO 29010KT CLR M04/M06 A2935 RMK AO2 SLP945 T10391061 PWINO FZRANO RVRNO $
PAHC 251856Z AUTO 28008KT FEW035 M04/M06 A2935 RMK AO2 SLP943 T10441061 PWINO FZRANO RVRNO $
PAHC 251756Z AUTO 28008KT OVC033 M04/M06 A2934 RMK AO2 SLP941 T10391061 11028 21039 58000 PWINO FZRANO RVRNO $
PAHC 251732Z AUTO 28008KT OVC031 M03/M06 A2934 RMK AO2 PWINO FZRANO RVRNO $
PAHC 251656Z AUTO 28006KT OVC029 M03/M05 A2935 RMK AO2 SLP943 T10281050 PWINO FZRANO RVRNO $
PAHC 251556Z AUTO 28005KT OVC027 M03/M05 A2934 RMK AO2 SLP941 T10281050 PWINO FZRANO RVRNO $
PAHC 251456Z AUTO 27003KT OVC027 M03/M06 A2934 RMK AO2 SLP942 T10281056 57008 PWINO FZRANO RVRNO $
PAHC 251356Z AUTO 00000KT OVC023 M03/M06 A2935 RMK AO2 SLP944 T10281056 PWINO FZRANO RVRNO $
PAHC 251256Z AUTO 27004KT OVC023 M03/M06 A2936 RMK AO2 SLP947 T10281056 PWINO FZRANO RVRNO $
PAHC 251156Z AUTO 27004KT BKN025 M03/M06 A2937 RMK AO2 SLP950 T10331056 11033 21061 56004 PWINO FZRANO RVRNO $
PAHC 251153Z AUTO 28005KT BKN025 M03/M06 A2937 RMK AO2 PWINO FZRANO RVRNO $
PAHC 251131Z AUTO 28005KT SCT029 M04/M06 A2937 RMK AO2 PWINO FZRANO RVRNO $
PAHC 251120Z AUTO 28005KT BKN029 M04/M06 A2937 RMK AO2 PWINO FZRANO RVRNO $
PAHC 251056Z AUTO 29006KT BKN031 M04/M06 A2937 RMK AO2 SLP952 T10391056 PWINO FZRANO RVRNO $
PAHC 250956Z AUTO 28005KT BKN033 M04/M06 A2938 RMK AO2 SLP954 T10391056 PWINO FZRANO RVRNO $
PAHC 250856Z AUTO 28007KT SCT035 M04/M05 A2938 RMK AO2 SLP955 T10391050 56008 PWINO FZRANO RVRNO $
PAHC 250756Z AUTO 28006KT CLR M06/M06 A2939 RMK AO2 SLP957 T10561061 400171061 PWINO FZRANO RVRNO $
PAHC 250656Z AUTO 00000KT BKN035 M06/M07 A2940 RMK AO2 SLP960 T10611067 PWINO FZRANO RVRNO $
PAHC 250556Z AUTO 00000KT FEW034 M04/M06 A2941 RMK AO2 SLP962 T10441061 10017 21044 57010 PWINO FZRANO RVRNO $
PAHC 250456Z AUTO 21004KT FEW031 M03/M06 A2942 RMK AO2 SLP966 T10331056 PWINO FZRANO RVRNO $
PAHC 250356Z AUTO 00000KT FEW028 BKN041 M02/M05 A2942 RMK AO2 SLP969 T10171050 PWINO FZRANO RVRNO $
PAHC 250348Z AUTO 00000KT SCT028 BKN041 M02/M05 A2943 RMK AO2 PWINO FZRANO RVRNO $
PAHC 250335Z AUTO 00000KT BKN028 OVC041 M01/M05 A2943 RMK AO2 PWINO FZRANO RVRNO $
PAHC 250256Z AUTO 00000KT OVC035 00/M05 A2944 RMK AO2 SLP973 T00001050 56014 PWINO FZRANO RVRNO $
PAHC 250156Z AUTO 24004KT OVC035 01/M05 A2945 RMK AO2 SLP976 T00111050 PWINO FZRANO RVRNO $
PAHC 250056Z AUTO 25008KT SCT025 OVC031 01/M04 A2946 RMK AO2 SLP982 T00111039 PWINO FZRANO RVRNO $
PAHC 242356Z AUTO 00000KT BKN025 BKN055 01/M03 A2948 RMK AO2 SLP986 T00111033 10017 21022 58012 PWINO FZRANO RVRNO $
PAHC 242339Z AUTO 24005KT FEW020 01/M04 A2948 RMK AO2 PWINO FZRANO RVRNO $
PAHC 242256Z AUTO 23006KT SCT016 OVC029 01/M03 A2950 RMK AO2 SLP993 T00061028 PWINO FZRANO RVRNO $
PAHC 242156Z AUTO 22009KT SCT012 OVC027 00/M03 A2951 RMK AO2 SLP997 T00001028 PWINO FZRANO RVRNO $
PAHC 242114Z AUTO 21006KT SCT012 OVC027 M01/M03 A2951 RMK AO2 PWINO FZRANO RVRNO $
PAHC 242056Z AUTO 21005KT BKN012 OVC120 M01/M03 A2951 RMK AO2 SLP998 T10111028 57000 PWINO FZRANO RVRNO $
PAHC 242051Z AUTO 20005KT BKN012 OVC110 M01/M03 A2951 RMK AO2 PWINO FZRANO RVRNO $
PAHC 242004Z AUTO 21003KT SCT021 OVC110 M02/M03 A2951 RMK AO2 PWINO FZRANO RVRNO $
PAHC 241956Z AUTO 20003KT BKN021 OVC110 M02/M03 A2951 RMK AO2 SLP998 T10171028 PWINO FZRANO RVRNO $
PAHC 241948Z AUTO 21004KT SCT025 OVC120 M02/M03 A2951 RMK AO2 PWINO FZRANO RVRNO $
PAHC 241856Z AUTO 20004KT SCT014 BKN025 M02/M03 A2951 RMK AO2 SLP998 T10221033 PWINO FZRANO RVRNO $
PAHC 241852Z AUTO 20005KT SCT014 BKN025 M02/M03 A2951 RMK AO2 PWINO FZRANO RVRNO $
PAHC 241756Z AUTO 17003KT FEW016 BKN120 M02/M04 A2951 RMK AO2 SLP998 T10171039 10006 21017 57004 PWINO FZRANO RVRNO $
PAHC 241753Z AUTO 00000KT SCT016 BKN120 M02/M03 A2951 RMK AO2 PWINO FZRANO RVRNO $
PAHC 241656Z AUTO 24006KT OVC018 M01/M03 A2952 RMK AO2 SLP002 T10111033 PWINO FZRANO RVRNO $
PAHC 241556Z AUTO 22006KT BKN020 M01/M03 A2952 RMK AO2 SLP002 T10111028 PWINO FZRANO RVRNO $
PAHC 241535Z AUTO 21005KT BKN020 M01/M03 A2952 RMK AO2 PWINO FZRANO RVRNO $
PAHC 241522Z AUTO 21004KT SCT020 M01/M03 A2951 RMK AO2 PWINO FZRANO RVRNO $
PAHC 241513Z AUTO 20004KT BKN020 M01/M03 A2951 RMK AO2 PWINO FZRANO RVRNO $
PAHC 241456Z AUTO 00000KT FEW020 M01/M03 A2951 RMK AO2 SLP997 T10111028 53012 PWINO FZRANO RVRNO $
PAHC 241356Z AUTO 23007KT SCT050 M01/M02 A2949 RMK AO2 SLP992 T10061022 PWINO FZRANO RVRNO $
PAHC 241256Z AUTO 24008KT OVC050 00/M02 A2948 RMK AO2 SLP989 T00001022 PWINO FZRANO RVRNO $
PAHC 241156Z AUTO 23006KT BKN031 OVC050 01/M02 A2947 RMK AO2 SLP985 T00061022 10006 21006 51019 PWINO FZRANO RVRNO $